Time;durP1;ratioP1;P1;durP2;ratioP2;P2;SDS_P1;SDS_P2;PMS_P1;PMS_P2;Temp;Humidity;BMP_temperature;BMP_pressure;BME280_temperature;BME280_humidity;BME280_pressure;Samples;Min_cycle;Max_cycle;Signal;HPM_P1;HPM_P2
2021/05/29 00:00:14;;;;;;;;;;;22.90;42.50;;;;;;1635553;72;738;-69
2021/05/29 00:02:15;;;;;;;;;;;23.00;42.30;;;;;;1635256;71;819;-67
2021/05/29 00:04:17;;;;;;;;;;;22.90;42.30;;;;;;1641466;71;1114;-68
2021/05/29 00:06:20;;;;;;;;;;;22.90;42.20;;;;;;1633098;71;788;-71
2021/05/29 00:08:22;;;;;;;;;;;22.90;42.20;;;;;;1635354;71;776;-69
2021/05/29 00:10:24;;;;;;;;;;;22.90;42.10;;;;;;1634708;72;918;-69
2021/05/29 00:12:26;;;;;;;;;;;22.90;42.10;;;;;;1638877;71;1942;-71
2021/05/29 00:14:29;;;;;;;;;;;23.00;42.00;;;;;;1638536;72;754;-74
2021/05/29 00:16:31;;;;;;;;;;;22.90;42.00;;;;;;1631901;71;761;-69
2021/05/29 00:18:33;;;;;;;;;;;23.00;42.00;;;;;;1633621;71;793;-70
2021/05/29 00:20:37;;;;;;;;;;;22.90;41.90;;;;;;1635449;71;744;-73
2021/05/29 00:22:39;;;;;;;;;;;22.90;41.90;;;;;;1634643;72;1683;-71
2021/05/29 00:24:40;;;;;;;;;;;22.90;41.90;;;;;;1632396;72;757;-72
2021/05/29 00:26:42;;;;;;;;;;;22.90;41.80;;;;;;1630650;71;791;-74
2021/05/29 00:28:44;;;;;;;;;;;22.90;41.80;;;;;;1630769;71;761;-71
2021/05/29 00:30:46;;;;;;;;;;;22.90;41.90;;;;;;1638190;71;808;-71
2021/05/29 00:32:48;;;;;;;;;;;23.00;42.10;;;;;;1639231;71;1939;-71
2021/05/29 00:34:50;;;;;;;;;;;22.90;42.00;;;;;;1630317;72;746;-76
2021/05/29 00:36:52;;;;;;;;;;;22.90;42.00;;;;;;1637922;71;786;-72
2021/05/29 00:38:54;;;;;;;;;;;22.90;42.00;;;;;;1637429;71;974;-71
2021/05/29 00:40:55;;;;;;;;;;;22.90;42.10;;;;;;1634582;71;680;-73
2021/05/29 00:42:58;;;;;;;;;;;22.90;42.20;;;;;;1639310;71;1066;-76
2021/05/29 00:45:00;;;;;;;;;;;22.90;42.10;;;;;;1639157;71;778;-75
2021/05/29 00:47:04;;;;;;;;;;;23.00;42.00;;;;;;1639387;72;681;-73
2021/05/29 00:49:05;;;;;;;;;;;22.90;42.10;;;;;;1638920;72;1697;-71
2021/05/29 00:51:08;;;;;;;;;;;22.90;42.10;;;;;;1636948;71;706;-71
2021/05/29 00:53:10;;;;;;;;;;;22.90;42.10;;;;;;1632883;71;1962;-72
2021/05/29 00:55:14;;;;;;;;;;;22.90;42.10;;;;;;1634189;72;748;-73
2021/05/29 00:57:16;;;;;;;;;;;23.20;42.30;;;;;;1633592;71;1929;-69
2021/05/29 00:59:17;;;;;;;;;;;22.90;42.20;;;;;;1639308;71;783;-72
2021/05/29 01:01:19;;;;;;;;;;;22.90;42.10;;;;;;1634925;71;780;-71
2021/05/29 01:03:21;;;;;;;;;;;22.90;42.00;;;;;;1635017;72;1145;-73
2021/05/29 01:05:24;;;;;;;;;;;22.90;42.10;;;;;;1632904;71;646;-71
2021/05/29 01:07:26;;;;;;;;;;;22.90;42.10;;;;;;1639478;71;714;-71
2021/05/29 01:09:28;;;;;;;;;;;23.00;42.10;;;;;;1634161;71;754;-71
2021/05/29 01:11:29;;;;;;;;;;;22.90;42.10;;;;;;1638065;71;748;-72
2021/05/29 01:13:33;;;;;;;;;;;22.90;42.00;;;;;;1633813;71;1951;-73
2021/05/29 01:15:37;;;;;;;;;;;22.90;42.10;;;;;;1639195;71;1147;-69
2021/05/29 01:17:38;;;;;;;;;;;22.90;42.10;;;;;;1634903;72;1663;-70
2021/05/29 01:19:40;;;;;;;;;;;22.90;42.10;;;;;;1635110;71;818;-70
2021/05/29 01:21:42;;;;;;;;;;;22.90;42.10;;;;;;1631582;71;786;-70
2021/05/29 01:23:44;;;;;;;;;;;22.90;42.20;;;;;;1629007;71;1141;-71
2021/05/29 01:25:47;;;;;;;;;;;22.90;42.10;;;;;;1634966;71;725;-72
2021/05/29 01:27:56;;;;;;;;;;;22.90;42.20;;;;;;1635452;72;806;-70
2021/05/29 01:29:58;;;;;;;;;;;22.90;42.30;;;;;;1617882;71;1681;-70
2021/05/29 01:32:02;;;;;;;;;;;22.90;42.10;;;;;;1638346;71;722;-70
2021/05/29 01:34:04;;;;;;;;;;;22.90;42.10;;;;;;1639048;71;1937;-70
2021/05/29 01:36:10;;;;;;;;;;;22.90;41.90;;;;;;1637061;71;698;-72
2021/05/29 01:38:12;;;;;;;;;;;22.90;42.00;;;;;;1631866;72;784;-69
2021/05/29 01:40:14;;;;;;;;;;;22.90;42.00;;;;;;1635717;72;809;-71
2021/05/29 01:42:17;;;;;;;;;;;22.90;42.20;;;;;;1638439;71;792;-69
2021/05/29 01:44:19;;;;;;;;;;;22.90;42.30;;;;;;1635346;72;1079;-72
2021/05/29 01:46:21;;;;;;;;;;;22.90;42.30;;;;;;1639658;71;810;-71
2021/05/29 01:48:27;;;;;;;;;;;22.90;42.10;;;;;;1631006;71;751;-73
2021/05/29 01:50:27;;;;;;;;;;;22.90;42.20;;;;;;1631057;71;1462;-70
2021/05/29 01:52:45;;;;;;;;;;;22.90;42.10;;;;;;1639174;71;1145;-69
2021/05/29 01:54:46;;;;;;;;;;;22.90;42.30;;;;;;1634290;72;724;-70
2021/05/29 01:56:48;;;;;;;;;;;22.90;42.30;;;;;;1636950;72;892;-70
2021/05/29 01:58:50;;;;;;;;;;;22.90;42.30;;;;;;1637386;72;776;-72
2021/05/29 02:00:52;;;;;;;;;;;22.90;42.30;;;;;;1634600;72;743;-70
2021/05/29 02:02:54;;;;;;;;;;;22.90;42.30;;;;;;1634601;72;1129;-70
2021/05/29 02:04:56;;;;;;;;;;;22.90;42.30;;;;;;1635983;71;753;-77
2021/05/29 02:06:58;;;;;;;;;;;22.90;42.20;;;;;;1629444;71;714;-69
2021/05/29 02:09:00;;;;;;;;;;;22.90;42.30;;;;;;1634232;71;780;-71
2021/05/29 02:11:02;;;;;;;;;;;22.90;42.40;;;;;;1638045;71;779;-69
2021/05/29 02:13:04;;;;;;;;;;;22.90;42.40;;;;;;1633165;71;1939;-69
2021/05/29 02:15:07;;;;;;;;;;;22.80;42.20;;;;;;1639338;71;707;-69
2021/05/29 02:17:09;;;;;;;;;;;22.80;42.20;;;;;;1634058;71;782;-71
2021/05/29 02:19:11;;;;;;;;;;;22.80;42.10;;;;;;1636334;71;777;-71
2021/05/29 02:21:13;;;;;;;;;;;22.90;42.10;;;;;;1639416;71;789;-71
2021/05/29 02:23:22;;;;;;;;;;;22.90;42.10;;;;;;1633381;71;1156;-74
2021/05/29 02:25:24;;;;;;;;;;;22.90;42.10;;;;;;1629411;71;733;-72
2021/05/29 02:27:26;;;;;;;;;;;22.80;42.10;;;;;;1623913;71;741;-73
2021/05/29 02:29:28;;;;;;;;;;;22.90;42.20;;;;;;1631810;71;802;-74
2021/05/29 02:31:30;;;;;;;;;;;22.90;42.00;;;;;;1619598;71;764;-70
2021/05/29 02:33:32;;;;;;;;;;;22.90;42.00;;;;;;1619013;72;1955;-70
2021/05/29 02:35:34;;;;;;;;;;;22.90;41.90;;;;;;1630236;71;830;-70
2021/05/29 02:37:36;;;;;;;;;;;22.90;42.00;;;;;;1631632;72;795;-72
2021/05/29 02:39:38;;;;;;;;;;;22.90;41.90;;;;;;1625064;72;758;-72
2021/05/29 02:41:40;;;;;;;;;;;22.90;41.90;;;;;;1629963;71;789;-71
2021/05/29 02:43:41;;;;;;;;;;;22.90;41.90;;;;;;1625475;70;218567;-66
2021/05/29 02:45:43;;;;;;;;;;;22.90;41.80;;;;;;1621295;71;842;-66
2021/05/29 02:47:45;;;;;;;;;;;22.90;41.80;;;;;;1622501;71;810;-66
2021/05/29 02:49:47;;;;;;;;;;;22.90;41.80;;;;;;1618489;71;809;-66
2021/05/29 02:51:49;;;;;;;;;;;22.90;41.70;;;;;;1619376;71;748;-64
2021/05/29 02:53:51;;;;;;;;;;;22.90;41.70;;;;;;1623401;71;1923;-68
2021/05/29 02:55:53;;;;;;;;;;;22.90;41.80;;;;;;1612719;72;660;-66
2021/05/29 02:57:56;;;;;;;;;;;22.90;41.70;;;;;;1597369;72;791;-66
2021/05/29 02:59:58;;;;;;;;;;;23.00;41.70;;;;;;1622740;72;799;-67
2021/05/29 03:02:00;;;;;;;;;;;23.00;41.60;;;;;;1615984;72;749;-67
2021/05/29 03:04:02;;;;;;;;;;;22.90;41.70;;;;;;1625787;72;1126;-68
2021/05/29 03:06:04;;;;;;;;;;;23.00;41.70;;;;;;1619912;72;763;-66
2021/05/29 03:08:06;;;;;;;;;;;22.90;41.60;;;;;;1618982;72;745;-65
2021/05/29 03:10:09;;;;;;;;;;;22.90;41.70;;;;;;1628823;72;765;-66
2021/05/29 03:12:11;;;;;;;;;;;22.90;41.60;;;;;;1621210;72;795;-67
2021/05/29 03:14:13;;;;;;;;;;;22.90;41.60;;;;;;1620366;72;1959;-67
2021/05/29 03:16:14;;;;;;;;;;;22.90;41.60;;;;;;1621388;72;773;-69
2021/05/29 03:18:16;;;;;;;;;;;22.90;41.70;;;;;;1614934;72;743;-65
2021/05/29 03:20:20;;;;;;;;;;;22.90;41.60;;;;;;1606631;72;777;-66
2021/05/29 03:22:22;;;;;;;;;;;22.90;41.70;;;;;;1619767;72;693;-66
2021/05/29 03:24:24;;;;;;;;;;;22.90;41.80;;;;;;1615477;72;1159;-66
2021/05/29 03:26:25;;;;;;;;;;;22.90;41.80;;;;;;1620793;72;666;-66
2021/05/29 03:28:27;;;;;;;;;;;22.90;42.00;;;;;;1622240;72;786;-68
2021/05/29 03:30:29;;;;;;;;;;;22.90;42.00;;;;;;1615788;72;734;-66
2021/05/29 03:32:31;;;;;;;;;;;22.90;42.10;;;;;;1602686;72;803;-66
2021/05/29 03:34:33;;;;;;;;;;;22.90;42.00;;;;;;1601292;72;1944;-65
2021/05/29 03:36:35;;;;;;;;;;;22.90;42.10;;;;;;1607906;72;782;-66
2021/05/29 03:38:37;;;;;;;;;;;22.90;42.00;;;;;;1607847;72;894;-66
2021/05/29 03:40:39;;;;;;;;;;;22.90;42.10;;;;;;1606943;72;896;-66
2021/05/29 03:42:41;;;;;;;;;;;22.90;42.00;;;;;;1604742;72;772;-66
2021/05/29 03:44:43;;;;;;;;;;;22.90;42.20;;;;;;1616231;72;1105;-65
2021/05/29 03:46:45;;;;;;;;;;;22.90;42.30;;;;;;1620622;72;751;-65
2021/05/29 03:48:47;;;;;;;;;;;22.90;42.30;;;;;;1611527;72;747;-67
2021/05/29 03:50:49;;;;;;;;;;;22.90;42.30;;;;;;1618081;72;776;-65
2021/05/29 03:52:51;;;;;;;;;;;22.90;42.30;;;;;;1612031;72;938;-65
2021/05/29 03:54:52;;;;;;;;;;;22.80;42.10;;;;;;1620563;72;1938;-65
2021/05/29 03:56:54;;;;;;;;;;;22.90;42.40;;;;;;1622818;72;741;-65
2021/05/29 03:58:56;;;;;;;;;;;22.80;42.20;;;;;;1622530;72;791;-66
2021/05/29 04:00:58;;;;;;;;;;;22.90;42.20;;;;;;1612726;72;784;-65
2021/05/29 04:03:00;;;;;;;;;;;22.90;42.10;;;;;;1615722;72;1170;-66
2021/05/29 04:05:03;;;;;;;;;;;22.90;42.20;;;;;;1622140;72;845;-66
2021/05/29 04:07:05;;;;;;;;;;;22.90;42.10;;;;;;1624562;72;825;-66
2021/05/29 04:09:07;;;;;;;;;;;22.90;42.30;;;;;;1610470;72;807;-66
2021/05/29 04:11:09;;;;;;;;;;;22.90;42.30;;;;;;1616621;72;744;-66
2021/05/29 04:13:11;;;;;;;;;;;22.90;42.30;;;;;;1615304;72;1152;-66
2021/05/29 04:15:13;;;;;;;;;;;22.80;42.20;;;;;;1608762;72;1936;-66
2021/05/29 04:17:15;;;;;;;;;;;22.80;42.30;;;;;;1614104;72;779;-66
2021/05/29 04:19:17;;;;;;;;;;;22.80;42.30;;;;;;1612226;72;903;-66
2021/05/29 04:21:19;;;;;;;;;;;22.80;42.30;;;;;;1615650;72;817;-63
2021/05/29 04:23:21;;;;;;;;;;;22.80;42.20;;;;;;1612555;72;1174;-66
2021/05/29 04:25:24;;;;;;;;;;;22.90;42.20;;;;;;1629898;72;782;-69
2021/05/29 04:27:26;;;;;;;;;;;22.80;42.20;;;;;;1628373;72;756;-66
2021/05/29 04:29:27;;;;;;;;;;;22.80;42.30;;;;;;1627329;72;910;-66
2021/05/29 04:31:29;;;;;;;;;;;22.90;42.30;;;;;;1615926;72;773;-67
2021/05/29 04:33:31;;;;;;;;;;;22.80;42.30;;;;;;1631821;71;1132;-68
2021/05/29 04:35:33;;;;;;;;;;;22.90;42.30;;;;;;1626281;72;1932;-66
2021/05/29 04:37:35;;;;;;;;;;;22.90;42.30;;;;;;1630032;72;847;-66
2021/05/29 04:39:37;;;;;;;;;;;22.90;42.20;;;;;;1626657;72;788;-67
2021/05/29 04:41:39;;;;;;;;;;;22.90;42.30;;;;;;1624791;72;737;-68
2021/05/29 04:43:41;;;;;;;;;;;22.80;42.20;;;;;;1624131;72;1150;-65
2021/05/29 04:45:43;;;;;;;;;;;22.80;42.20;;;;;;1625504;72;793;-66
2021/05/29 04:47:45;;;;;;;;;;;22.80;42.10;;;;;;1620507;72;800;-65
2021/05/29 04:49:46;;;;;;;;;;;22.80;42.10;;;;;;1616956;72;774;-66
2021/05/29 04:51:49;;;;;;;;;;;22.80;42.00;;;;;;1615263;72;734;-63
2021/05/29 04:53:50;;;;;;;;;;;22.80;42.00;;;;;;1617806;72;1140;-68
2021/05/29 04:55:53;;;;;;;;;;;22.80;41.90;;;;;;1615233;72;1917;-65
2021/05/29 04:57:55;;;;;;;;;;;22.80;41.80;;;;;;1614224;72;686;-67
2021/05/29 04:59:57;;;;;;;;;;;22.80;41.90;;;;;;1606989;72;773;-65
2021/05/29 05:01:59;;;;;;;;;;;22.90;42.10;;;;;;1609829;72;747;-65
2021/05/29 05:04:01;;;;;;;;;;;22.90;42.10;;;;;;1620211;72;1128;-65
2021/05/29 05:06:03;;;;;;;;;;;22.90;42.10;;;;;;1612699;72;928;-65
2021/05/29 05:08:05;;;;;;;;;;;22.80;42.00;;;;;;1619051;72;835;-65
2021/05/29 05:10:07;;;;;;;;;;;22.90;42.10;;;;;;1621926;72;684;-65
2021/05/29 05:12:09;;;;;;;;;;;22.90;42.10;;;;;;1616986;72;715;-65
2021/05/29 05:14:11;;;;;;;;;;;22.80;42.10;;;;;;1632780;72;1940;-65
2021/05/29 05:16:13;;;;;;;;;;;22.90;42.10;;;;;;1606516;72;717;-63
2021/05/29 05:18:15;;;;;;;;;;;22.80;42.10;;;;;;1600414;72;784;-64
2021/05/29 05:20:17;;;;;;;;;;;22.90;42.10;;;;;;1601652;72;748;-66
2021/05/29 05:22:19;;;;;;;;;;;22.90;42.20;;;;;;1595723;73;721;-65
2021/05/29 05:24:21;;;;;;;;;;;22.90;42.20;;;;;;1622203;72;1118;-65
2021/05/29 05:26:23;;;;;;;;;;;22.90;42.30;;;;;;1617330;72;817;-66
2021/05/29 05:28:29;;;;;;;;;;;22.80;42.30;;;;;;1586772;72;741;-67
2021/05/29 05:30:30;;;;;;;;;;;22.90;42.30;;;;;;1591592;72;661;-65
2021/05/29 05:32:33;;;;;;;;;;;22.90;42.30;;;;;;1598398;72;757;-64
2021/05/29 05:34:35;;;;;;;;;;;22.90;42.40;;;;;;1609267;72;1945;-60
2021/05/29 05:36:39;;;;;;;;;;;22.90;42.40;;;;;;1600461;72;682;-64
2021/05/29 05:38:41;;;;;;;;;;;22.90;42.40;;;;;;1603840;72;1063;-65
2021/05/29 05:40:43;;;;;;;;;;;22.90;42.50;;;;;;1585983;72;770;-68
2021/05/29 05:42:45;;;;;;;;;;;22.90;42.60;;;;;;1614241;72;784;-65
2021/05/29 05:44:47;;;;;;;;;;;22.90;42.50;;;;;;1590210;73;1074;-66
2021/05/29 05:46:49;;;;;;;;;;;22.90;42.50;;;;;;1599557;72;724;-65
2021/05/29 05:48:51;;;;;;;;;;;22.90;42.60;;;;;;1604181;72;797;-68
2021/05/29 05:50:55;;;;;;;;;;;22.90;42.40;;;;;;1613516;72;700;-67
2021/05/29 05:52:56;;;;;;;;;;;22.90;42.40;;;;;;1602105;72;1893;-67
2021/05/29 05:54:58;;;;;;;;;;;22.90;42.60;;;;;;1609001;72;1921;-67
2021/05/29 05:57:00;;;;;;;;;;;22.90;42.60;;;;;;1593611;72;715;-68
2021/05/29 05:59:02;;;;;;;;;;;22.90;42.50;;;;;;1601251;72;805;-67
2021/05/29 06:01:05;;;;;;;;;;;22.90;42.60;;;;;;1618970;72;710;-67
2021/05/29 06:03:07;;;;;;;;;;;22.90;42.50;;;;;;1594744;72;1118;-65
2021/05/29 06:05:09;;;;;;;;;;;22.90;42.60;;;;;;1608774;72;728;-64
2021/05/29 06:07:11;;;;;;;;;;;22.90;42.70;;;;;;1607744;72;724;-65
2021/05/29 06:09:13;;;;;;;;;;;23.00;42.40;;;;;;1592236;72;791;-65
2021/05/29 06:11:15;;;;;;;;;;;23.00;42.70;;;;;;1605045;72;803;-67
2021/05/29 06:20:04;;;;;;;;;;;22.90;42.90;;;;;;1598868;72;1640;-65
2021/05/29 06:22:06;;;;;;;;;;;22.80;42.80;;;;;;1614973;72;728;-67
2021/05/29 06:24:08;;;;;;;;;;;22.90;43.00;;;;;;1619101;71;1122;-66
2021/05/29 06:26:10;;;;;;;;;;;22.90;43.10;;;;;;1616030;72;730;-65
2021/05/29 06:28:12;;;;;;;;;;;22.90;43.20;;;;;;1616248;72;725;-65
2021/05/29 06:30:14;;;;;;;;;;;22.80;43.10;;;;;;1619683;72;735;-65
2021/05/29 06:32:16;;;;;;;;;;;22.90;43.30;;;;;;1617888;72;805;-64
2021/05/29 06:34:18;;;;;;;;;;;22.90;43.30;;;;;;1614401;71;1126;-65
2021/05/29 06:36:20;;;;;;;;;;;22.90;43.30;;;;;;1621712;72;1927;-64
2021/05/29 06:38:21;;;;;;;;;;;22.90;43.30;;;;;;1612544;72;712;-66
2021/05/29 06:40:23;;;;;;;;;;;22.90;43.10;;;;;;1630842;72;701;-66
2021/05/29 06:42:25;;;;;;;;;;;23.00;43.40;;;;;;1607583;72;674;-69
2021/05/29 06:44:27;;;;;;;;;;;22.90;43.10;;;;;;1618567;71;1077;-65
2021/05/29 06:46:29;;;;;;;;;;;22.90;43.10;;;;;;1614259;72;793;-65
2021/05/29 06:48:31;;;;;;;;;;;22.90;43.40;;;;;;1612524;72;711;-65
2021/05/29 06:50:33;;;;;;;;;;;22.90;43.30;;;;;;1606090;72;791;-65
2021/05/29 06:52:37;;;;;;;;;;;22.90;43.00;;;;;;1616774;72;783;-68
2021/05/29 06:54:55;;;;;;;;;;;22.90;43.30;;;;;;1622229;71;1943;-67
2021/05/29 06:59:07;;;;;;;;;;;22.80;44.00;;;;;;1607494;72;1638;-63
2021/05/29 07:01:09;;;;;;;;;;;22.80;43.90;;;;;;1599238;73;683;-66
2021/05/29 07:03:11;;;;;;;;;;;22.70;43.60;;;;;;1606545;72;1146;-66
2021/05/29 07:05:14;;;;;;;;;;;22.90;43.70;;;;;;1605850;72;653;-66
2021/05/29 07:07:16;;;;;;;;;;;22.90;43.40;;;;;;1600714;72;744;-64
2021/05/29 07:09:20;;;;;;;;;;;22.90;43.30;;;;;;1610145;72;785;-65
2021/05/29 07:11:22;;;;;;;;;;;22.80;43.20;;;;;;1607153;72;815;-66
2021/05/29 07:13:24;;;;;;;;;;;22.90;43.10;;;;;;1603514;72;1184;-65
2021/05/29 07:15:30;;;;;;;;;;;22.90;43.10;;;;;;1591305;72;1940;-67
2021/05/29 07:17:32;;;;;;;;;;;22.80;42.90;;;;;;1602897;72;1638;-66
2021/05/29 07:19:32;;;;;;;;;;;22.80;42.80;;;;;;1602103;72;1503;-66
2021/05/29 07:21:35;;;;;;;;;;;22.80;42.80;;;;;;1610955;72;756;-66
2021/05/29 07:23:37;;;;;;;;;;;22.90;43.00;;;;;;1603566;72;1155;-66
2021/05/29 07:25:41;;;;;;;;;;;22.80;42.80;;;;;;1605571;72;765;-67
2021/05/29 07:27:43;;;;;;;;;;;22.80;42.80;;;;;;1601673;72;710;-65
2021/05/29 07:29:44;;;;;;;;;;;22.70;42.70;;;;;;1598404;72;667;-67
2021/05/29 07:31:47;;;;;;;;;;;22.70;42.90;;;;;;1604165;72;762;-69
2021/05/29 07:33:51;;;;;;;;;;;22.80;42.90;;;;;;1605624;72;1131;-66
2021/05/29 07:35:52;;;;;;;;;;;22.70;42.30;;;;;;1591202;72;1936;-63
2021/05/29 07:37:54;;;;;;;;;;;22.70;42.50;;;;;;1601874;72;894;-66
2021/05/29 07:39:56;;;;;;;;;;;22.80;42.50;;;;;;1609729;72;905;-66
2021/05/29 07:41:58;;;;;;;;;;;22.80;42.40;;;;;;1608626;72;741;-66
2021/05/29 07:44:00;;;;;;;;;;;22.80;42.30;;;;;;1615555;72;1172;-66
2021/05/29 07:46:02;;;;;;;;;;;22.80;42.30;;;;;;1612025;72;968;-66
2021/05/29 07:48:04;;;;;;;;;;;22.80;42.20;;;;;;1611489;72;731;-66
2021/05/29 07:50:06;;;;;;;;;;;22.70;42.20;;;;;;1626003;72;698;-66
2021/05/29 07:52:08;;;;;;;;;;;22.70;42.10;;;;;;1618445;72;716;-65
2021/05/29 07:54:11;;;;;;;;;;;22.70;42.10;;;;;;1623100;72;1103;-66
2021/05/29 07:56:14;;;;;;;;;;;22.80;42.10;;;;;;1615980;72;1921;-66
2021/05/29 07:58:16;;;;;;;;;;;22.70;42.00;;;;;;1599947;72;710;-67
2021/05/29 08:00:23;;;;;;;;;;;22.80;41.80;;;;;;1616565;72;721;-65
2021/05/29 08:02:22;;;;;;;;;;;22.70;41.90;;;;;;1608351;72;1625;-63
2021/05/29 08:04:24;;;;;;;;;;;22.70;41.80;;;;;;1607950;72;1127;-66
2021/05/29 08:06:26;;;;;;;;;;;22.70;41.80;;;;;;1596732;72;771;-66
2021/05/29 08:08:28;;;;;;;;;;;22.80;41.70;;;;;;1612806;72;723;-66
2021/05/29 08:10:30;;;;;;;;;;;22.70;41.70;;;;;;1606259;73;761;-63
2021/05/29 08:12:32;;;;;;;;;;;22.70;41.70;;;;;;1609435;72;723;-65
2021/05/29 08:14:34;;;;;;;;;;;22.70;41.70;;;;;;1619642;72;1173;-65
2021/05/29 08:16:36;;;;;;;;;;;22.70;41.60;;;;;;1611318;72;1897;-65
2021/05/29 08:18:38;;;;;;;;;;;22.70;41.60;;;;;;1617229;72;800;-65
2021/05/29 08:20:40;;;;;;;;;;;22.70;41.60;;;;;;1608162;72;774;-65
2021/05/29 08:22:42;;;;;;;;;;;22.60;41.50;;;;;;1608435;71;793;-64
2021/05/29 08:24:44;;;;;;;;;;;22.70;41.50;;;;;;1595135;72;1110;-63
2021/05/29 08:26:46;;;;;;;;;;;22.60;41.50;;;;;;1613263;71;683;-64
2021/05/29 08:28:48;;;;;;;;;;;22.70;41.50;;;;;;1591673;72;778;-65
2021/05/29 08:30:50;;;;;;;;;;;22.70;41.50;;;;;;1612814;72;791;-65
2021/05/29 08:32:52;;;;;;;;;;;22.70;41.50;;;;;;1622426;72;1153;-65
2021/05/29 08:34:54;;;;;;;;;;;22.60;41.40;;;;;;1605095;72;741;-65
2021/05/29 08:36:56;;;;;;;;;;;22.70;41.40;;;;;;1614403;72;1928;-65
2021/05/29 08:38:58;;;;;;;;;;;22.70;41.40;;;;;;1604854;72;834;-65
2021/05/29 08:40:59;;;;;;;;;;;22.60;41.40;;;;;;1604880;72;790;-64
2021/05/29 08:43:02;;;;;;;;;;;22.60;41.30;;;;;;1602890;72;1145;-65
2021/05/29 08:45:05;;;;;;;;;;;22.60;41.40;;;;;;1530427;70;2092;-71
2021/05/29 08:47:07;;;;;;;;;;;22.60;41.30;;;;;;1538237;76;711;-74
2021/05/29 08:49:09;;;;;;;;;;;22.70;41.40;;;;;;1526591;76;779;-70
2021/05/29 08:51:14;;;;;;;;;;;22.80;41.30;;;;;;1537024;75;738;-66
2021/05/29 08:53:16;;;;;;;;;;;22.80;41.20;;;;;;1517457;76;671;-70
2021/05/29 08:55:18;;;;;;;;;;;22.80;41.30;;;;;;1511871;77;1950;-70
2021/05/29 08:57:20;;;;;;;;;;;22.80;41.20;;;;;;1495345;77;789;-70
2021/05/29 08:59:22;;;;;;;;;;;22.80;41.10;;;;;;1503793;77;763;-71
2021/05/29 09:01:25;;;;;;;;;;;22.70;41.10;;;;;;1507630;77;843;-73
2021/05/29 09:03:28;;;;;;;;;;;22.70;41.10;;;;;;1505394;77;1146;-69
2021/05/29 09:05:47;;;;;;;;;;;22.80;41.10;;;;;;1504819;77;1875;-73
2021/05/29 09:07:49;;;;;;;;;;;22.60;41.10;;;;;;1501034;77;1890;-70
2021/05/29 09:09:52;;;;;;;;;;;22.70;41.10;;;;;;1504164;76;1111;-70
2021/05/29 09:11:58;;;;;;;;;;;22.60;41.00;;;;;;1504672;76;1332;-73
2021/05/29 09:13:58;;;;;;;;;;;22.60;41.00;;;;;;1499933;77;1699;-74
2021/05/29 09:16:00;;;;;;;;;;;22.60;41.00;;;;;;1503381;77;1950;-70
2021/05/29 09:18:02;;;;;;;;;;;22.60;41.00;;;;;;1504381;77;825;-70
2021/05/29 09:20:11;;;;;;;;;;;22.70;41.00;;;;;;1517672;76;824;-70
2021/05/29 09:22:13;;;;;;;;;;;22.70;40.80;;;;;;1510961;77;815;-71
2021/05/29 09:24:16;;;;;;;;;;;22.70;41.00;;;;;;1499450;76;1128;-74
2021/05/29 09:26:21;;;;;;;;;;;22.80;40.90;;;;;;1496828;77;724;-71
2021/05/29 09:28:25;;;;;;;;;;;22.70;40.90;;;;;;1501400;77;1664;-72
2021/05/29 09:30:45;;;;;;;;;;;22.70;40.90;;;;;;1491820;78;695;-72
2021/05/29 09:32:46;;;;;;;;;;;22.60;40.70;;;;;;1491485;77;808;-71
2021/05/29 09:34:51;;;;;;;;;;;22.70;40.90;;;;;;1491481;77;1167;-71
2021/05/29 09:36:54;;;;;;;;;;;22.60;40.80;;;;;;1499670;77;1921;-72
2021/05/29 09:38:57;;;;;;;;;;;22.70;40.90;;;;;;1496997;77;1830;-74
2021/05/29 09:40:59;;;;;;;;;;;22.60;40.80;;;;;;1526772;76;853;-75
2021/05/29 09:43:07;;;;;;;;;;;22.60;40.80;;;;;;1499357;77;719;-73
2021/05/29 09:45:22;;;;;;;;;;;22.60;40.70;;;;;;1510368;77;1093;-72
2021/05/29 09:47:28;;;;;;;;;;;22.60;40.70;;;;;;1489897;77;764;-71
2021/05/29 09:49:48;;;;;;;;;;;22.70;40.80;;;;;;1494128;77;1235;-71
2021/05/29 09:51:49;;;;;;;;;;;22.70;40.80;;;;;;1490449;77;1817;-71
2021/05/29 09:53:52;;;;;;;;;;;22.60;40.60;;;;;;1500655;78;1156;-72
2021/05/29 09:55:53;;;;;;;;;;;22.60;40.70;;;;;;1498886;77;1931;-71
2021/05/29 09:58:00;;;;;;;;;;;22.70;40.60;;;;;;1494712;77;752;-73
2021/05/29 10:00:02;;;;;;;;;;;22.70;40.50;;;;;;1489037;77;690;-74
2021/05/29 10:02:05;;;;;;;;;;;22.70;40.50;;;;;;1492487;77;894;-70
2021/05/29 10:04:07;;;;;;;;;;;22.80;40.50;;;;;;1490446;77;1140;-69
2021/05/29 10:06:12;;;;;;;;;;;22.70;40.50;;;;;;1497121;77;726;-69
2021/05/29 10:08:14;;;;;;;;;;;22.80;40.40;;;;;;1498258;77;758;-73
2021/05/29 10:10:16;;;;;;;;;;;22.70;40.30;;;;;;1500633;77;833;-70
2021/05/29 10:12:18;;;;;;;;;;;22.80;40.30;;;;;;1496902;77;749;-69
2021/05/29 10:14:20;;;;;;;;;;;22.80;40.30;;;;;;1494627;77;1192;-69
2021/05/29 10:16:23;;;;;;;;;;;22.70;40.20;;;;;;1491251;77;1934;-70
2021/05/29 10:18:25;;;;;;;;;;;22.80;40.30;;;;;;1496027;77;852;-69
2021/05/29 10:20:27;;;;;;;;;;;22.80;40.20;;;;;;1490020;77;738;-70
2021/05/29 10:22:29;;;;;;;;;;;22.80;40.20;;;;;;1492667;77;910;-70
2021/05/29 10:24:31;;;;;;;;;;;22.70;40.20;;;;;;1495485;77;1072;-71
2021/05/29 10:26:33;;;;;;;;;;;22.70;40.20;;;;;;1494024;77;734;-69
2021/05/29 10:28:34;;;;;;;;;;;22.70;40.10;;;;;;1499903;77;784;-70
2021/05/29 10:30:36;;;;;;;;;;;22.70;40.10;;;;;;1488132;77;732;-69
2021/05/29 10:32:38;;;;;;;;;;;22.70;40.00;;;;;;1500188;77;738;-72
2021/05/29 10:35:00;;;;;;;;;;;22.70;40.10;;;;;;1502414;76;1138;-71
2021/05/29 10:37:02;;;;;;;;;;;22.70;40.00;;;;;;1498404;77;1917;-70
2021/05/29 10:39:06;;;;;;;;;;;22.70;40.00;;;;;;1498348;77;780;-72
2021/05/29 10:41:08;;;;;;;;;;;22.70;40.10;;;;;;1492257;77;1835;-72
2021/05/29 10:43:13;;;;;;;;;;;22.80;40.00;;;;;;1491071;77;713;-73
2021/05/29 10:45:15;;;;;;;;;;;22.80;40.00;;;;;;1504175;77;2083;-73
2021/05/29 10:47:19;;;;;;;;;;;22.70;40.00;;;;;;1500847;77;812;-73
2021/05/29 10:49:38;;;;;;;;;;;22.70;40.00;;;;;;1488821;77;1047;-72
2021/05/29 10:51:40;;;;;;;;;;;22.70;40.00;;;;;;1507828;77;765;-73
2021/05/29 10:53:55;;;;;;;;;;;22.80;40.20;;;;;;1505622;76;1151;-71
2021/05/29 10:56:17;;;;;;;;;;;22.70;40.30;;;;;;1497587;77;703;-69
2021/05/29 10:58:19;;;;;;;;;;;22.60;40.20;;;;;;1465803;79;1199;-69
2021/05/29 11:00:41;;;;;;;;;;;22.70;40.20;;;;;;1464402;79;758;-69
2021/05/29 11:02:40;;;;;;;;;;;22.70;40.30;;;;;;1462543;79;1257;-69
2021/05/29 11:04:42;;;;;;;;;;;22.70;40.40;;;;;;1486044;77;1119;-68
2021/05/29 11:06:48;;;;;;;;;;;22.70;40.30;;;;;;1494794;77;803;-68
2021/05/29 11:08:54;;;;;;;;;;;22.70;40.30;;;;;;1499130;77;853;-68
2021/05/29 11:10:56;;;;;;;;;;;22.70;40.30;;;;;;1519833;77;775;-69
2021/05/29 11:12:58;;;;;;;;;;;22.80;40.30;;;;;;1500416;77;760;-68
2021/05/29 11:15:00;;;;;;;;;;;22.70;40.40;;;;;;1498873;77;1122;-68
2021/05/29 11:17:09;;;;;;;;;;;22.70;40.40;;;;;;1523031;77;1944;-73
2021/05/29 11:19:11;;;;;;;;;;;22.70;40.80;;;;;;1506163;77;720;-69
2021/05/29 11:21:13;;;;;;;;;;;22.60;41.90;;;;;;1505589;77;759;-68
2021/05/29 11:23:16;;;;;;;;;;;22.50;42.60;;;;;;1504043;77;747;-71
2021/05/29 11:25:19;;;;;;;;;;;22.70;42.80;;;;;;1499255;77;1931;-70
2021/05/29 11:27:21;;;;;;;;;;;22.60;42.60;;;;;;1499036;77;712;-70
2021/05/29 11:29:23;;;;;;;;;;;22.70;42.20;;;;;;1509770;77;693;-71
2021/05/29 11:31:25;;;;;;;;;;;22.80;42.30;;;;;;1488883;77;727;-70
2021/05/29 11:33:27;;;;;;;;;;;22.70;42.10;;;;;;1519487;77;775;-71
2021/05/29 11:35:49;;;;;;;;;;;22.70;42.00;;;;;;1515981;77;838;-70
2021/05/29 11:38:01;;;;;;;;;;;22.70;41.80;;;;;;1512945;77;1932;-69
2021/05/29 11:40:03;;;;;;;;;;;22.70;40.90;;;;;;1509229;77;702;-70
2021/05/29 11:42:05;;;;;;;;;;;22.70;41.20;;;;;;1498624;77;814;-68
2021/05/29 11:44:23;;;;;;;;;;;22.80;41.30;;;;;;1516280;76;1198;-70
2021/05/29 11:46:29;;;;;;;;;;;22.70;41.00;;;;;;1483424;77;789;-72
2021/05/29 11:48:32;;;;;;;;;;;22.70;40.90;;;;;;1488877;77;771;-73
2021/05/29 11:50:39;;;;;;;;;;;22.70;40.60;;;;;;1493963;77;770;-72
2021/05/29 11:52:39;;;;;;;;;;;22.70;40.50;;;;;;1487262;77;1700;-73
2021/05/29 11:54:41;;;;;;;;;;;22.60;40.60;;;;;;1501424;76;1202;-72
2021/05/29 11:56:45;;;;;;;;;;;22.60;40.60;;;;;;1491107;77;1933;-72
2021/05/29 11:58:48;;;;;;;;;;;22.60;40.60;;;;;;1488998;77;805;-72
2021/05/29 12:00:58;;;;;;;;;;;22.70;40.60;;;;;;1488536;77;748;-72
2021/05/29 12:03:00;;;;;;;;;;;22.70;40.50;;;;;;1487646;77;1129;-72
2021/05/29 12:05:02;;;;;;;;;;;22.50;38.80;;;;;;1486625;77;1137;-72
2021/05/29 12:07:06;;;;;;;;;;;22.50;38.10;;;;;;1479515;77;718;-72
2021/05/29 12:09:08;;;;;;;;;;;22.60;39.10;;;;;;1478858;77;1706;-72
2021/05/29 12:11:10;;;;;;;;;;;22.60;38.30;;;;;;1501765;77;787;-71
2021/05/29 12:13:13;;;;;;;;;;;22.50;37.40;;;;;;1494620;77;755;-71
2021/05/29 12:15:15;;;;;;;;;;;22.50;37.80;;;;;;1503958;77;1212;-72
2021/05/29 12:17:17;;;;;;;;;;;22.50;38.40;;;;;;1489544;77;1938;-71
2021/05/29 12:19:33;;;;;;;;;;;22.50;38.40;;;;;;1488434;77;800;-71
2021/05/29 12:21:43;;;;;;;;;;;22.50;38.30;;;;;;1503569;76;785;-72